Nearby METAR Reports

 

KSJC - San Jose, California, USA
Distance from station: NØ 14km
Oppdatert: 27/01/2020 22:53
Hovedsaklig skyet
Hovedsaklig skyet
 Vind fra NNØ
Vind: NNØ 9 km/h
Temperatur: 15°C
Duggpunkt: 10°C
Fuktighet: 72%
Barometer: 1029.1 hPa
Clouds: Hovedsaklig skyet
Visibility: 16 km
Cloud details: Few Clouds 488 m
Delvis skyet 792 m
Hovedsaklig skyet 884 m
2020/01/27 21:53 KSJC 272153Z 02005KT 10SM FEW016 SCT026 BKN029 15/10 A3039 RMK AO2 SLP288 T01500100 $
KNUQ - Moffett Nas/Mtn, California, USA
Distance from station: N 14km
Oppdatert: 21/11/2019 17:56
NOT Current

 
Barometer: 1011.2 hPa
2019/11/21 16:56 KNUQ 211656Z AUTO A2986 RMK AO2 SLP116 PWINO $
 
KPAO - Palo Alto, California, USA
Distance from station: NNV 23km
Oppdatert: 27/01/2020 22:47
Overskyet
Overskyet
 Vind fra varies
Vind: varies 6 km/h
Temperatur: 13°C
Duggpunkt: 11°C
Fuktighet: 88%
Barometer: 1029.5 hPa
Clouds: Overskyet
Visibility: 16 km
Cloud details: Overskyet 762 m
2020/01/27 21:47 KPAO 272147Z VRB03KT 10SM OVC025 13/11 A3040
KRHV - San Jose/Reid, California, USA
Distance from station: ØNØ 19km
Oppdatert: 27/01/2020 22:47
Hovedsaklig skyet
Hovedsaklig skyet
 Vind fra NNV
Vind: NNV 20 km/h
Temperatur: 16°C
Duggpunkt: 10°C
Fuktighet: 68%
Barometer: 1028.8 hPa
Clouds: Hovedsaklig skyet
Visibility: 16 km
Cloud details: Delvis skyet 914 m
Hovedsaklig skyet 1524 m
2020/01/27 21:47 KRHV 272147Z 33011KT 10SM SCT030 BKN050 16/10 A3038
 
KOAK - Oakland, California, USA
Distance from station: NNV 50km
Oppdatert: 27/01/2020 22:53
Hovedsaklig skyet
Hovedsaklig skyet
 Vind fra S
Vind: S 11 km/h
Temperatur: 15°C
Duggpunkt: 11°C
Fuktighet: 77%
Barometer: 1029.1 hPa
Clouds: Hovedsaklig skyet
Visibility: 16 km
Cloud details: Few Clouds 732 m
Hovedsaklig skyet 5486 m
2020/01/27 21:53 KOAK 272153Z 18006KT 10SM FEW024 BKN180 15/11 A3039 RMK AO2 SLP289 T01500111
KSQL - San Carlos Airpo, California, USA
Distance from station: NV 34km
Oppdatert: 27/01/2020 22:50
Overskyet
Overskyet
 Vind fra varies
Vind: varies 6 km/h
Temperatur: 13°C
Duggpunkt: 11°C
Fuktighet: 88%
Barometer: 1029.1 hPa
Clouds: Overskyet
Visibility: 14 km
Cloud details: Overskyet 610 m
2020/01/27 21:50 KSQL 272150Z VRB03KT 9SM OVC020 13/11 A3039
 
KSFO - San Francisco, California, USA
Distance from station: NV 49km
Oppdatert: 27/01/2020 22:56
Hovedsaklig skyet
Hovedsaklig skyet
 Vind fra V
Vind: V 15 km/h
Temperatur: 14°C
Duggpunkt: 9°C
Fuktighet: 72%
Barometer: 1028.8 hPa
Clouds: Hovedsaklig skyet
Visibility: 13 km
Cloud details: Hovedsaklig skyet 671 m
2020/01/27 21:56 KSFO 272156Z 28008KT 8SM BKN022 14/09 A3038 RMK AO2 SLP288 T01440094
KE16 - San Martin, California, USA
Distance from station: ØSØ 43km
Oppdatert: 14/11/2019 10:35
NOT Current
Overskyet
Overskyet
 Vind fra SØ
Vind: SØ 11 km/h
Temperatur: 12°C
Duggpunkt: 10°C
Fuktighet: 88%
Barometer: 1017.6 hPa
Clouds: Overskyet
Visibility: 16 km
Cloud details: Overskyet 427 m
2019/11/14 09:35 KE16 140935Z AUTO 13006KT 10SM OVC014 12/10 A3005 RMK AO2
 
KWVI - Watsonville, California, USA
Distance from station: SSØ 44km
Oppdatert: 27/01/2020 22:53
Klart
Klart
 Vind fra SV
Vind: SV 9 km/h
Temperatur: 16°C
Duggpunkt: 7°C
Fuktighet: 55%
Barometer: 1028.4 hPa
Clouds: Klart
Visibility: 16 km
2020/01/27 21:53 KWVI 272153Z AUTO 22005KT 10SM CLR 16/07 A3037 RMK AO2 SLP283 T01610072
KHAF - Half Moon Bay, California, USA
Distance from station: VNV 50km
Oppdatert: 27/01/2020 23:20
Mist, Klart
Mist, Klart
 Vind fra NV
Vind: NV 13 km/h
Temperatur: 13°C
Duggpunkt: 11°C
Fuktighet: 88%
Barometer: 1029.1 hPa
Oversikt: Mist
Clouds: Klart
Visibility: 10 km
2020/01/27 22:20 KHAF 272220Z AUTO 31007KT 6SM BR CLR 13/11 A3039 RMK AO2
 
KHWD - Hayward, California, USA
Distance from station: N 44km
Oppdatert: 27/01/2020 22:54
Hovedsaklig skyet
Hovedsaklig skyet
 Vind fra VSV
Vind: VSV 7 km/h
Temperatur: 13°C
Duggpunkt: 11°C
Fuktighet: 88%
Barometer: 1028.8 hPa
Clouds: Hovedsaklig skyet
Visibility: 16 km
Cloud details: Hovedsaklig skyet 549 m
2020/01/27 21:54 KHWD 272154Z 25004KT 10SM BKN018 13/11 A3038 RMK AO2 SLP298 T01330106
KLVK - Livermore, California, USA
Distance from station: NNØ 51km
Oppdatert: 27/01/2020 22:53
Overskyet
Overskyet
 Vind fra V
Vind: V 15 km/h
Temperatur: 13°C
Duggpunkt: 10°C
Fuktighet: 82%
Barometer: 1028.4 hPa
Clouds: Overskyet
Visibility: 16 km
Cloud details: Overskyet 518 m
2020/01/27 21:53 KLVK 272153Z 27008KT 10SM OVC017 13/10 A3037 RMK AO2 SLP285 T01330100